Time;durP1;ratioP1;P1;durP2;ratioP2;P2;SDS_P1;SDS_P2;PMS_P1;PMS_P2;Temp;Humidity;BMP_temperature;BMP_pressure;BME280_temperature;BME280_humidity;BME280_pressure;Samples;Min_cycle;Max_cycle;Signal;HPM_P1;HPM_P2
2023/05/02 00:00:31;;;;;;;39.67;7.57;;;;;;;;;;5092050;28;20482;-38
2023/05/02 00:02:58;;;;;;;37.90;8.25;;;;;;;;;;5091879;28;20039;-39
2023/05/02 00:05:26;;;;;;;34.75;8.32;;;;;;;;;;5091316;28;20093;-38
2023/05/02 00:07:53;;;;;;;31.75;7.82;;;;;;;;;;5091145;28;20087;-39
2023/05/02 00:10:19;;;;;;;35.20;7.93;;;;;;;;;;5091275;28;20020;-38
2023/05/02 00:12:46;;;;;;;29.65;7.60;;;;;;;;;;5091424;28;20031;-39
2023/05/02 00:15:13;;;;;;;31.83;7.57;;;;;;;;;;5091297;28;20047;-42
2023/05/02 00:17:42;;;;;;;25.92;7.80;;;;;;;;;;5091471;28;20549;-38
2023/05/02 00:20:12;;;;;;;27.73;7.68;;;;;;;;;;5090983;28;20561;-38
2023/05/02 00:22:39;;;;;;;23.70;6.97;;;;;;;;;;5091304;28;20047;-39
2023/05/02 00:25:07;;;;;;;29.27;7.85;;;;;;;;;;5091164;28;20030;-39
2023/05/02 00:27:34;;;;;;;29.50;7.60;;;;;;;;;;5091261;28;20093;-38
2023/05/02 00:30:01;;;;;;;28.65;7.40;;;;;;;;;;5090847;28;20375;-38
2023/05/02 00:32:28;;;;;;;33.38;7.55;;;;;;;;;;5091032;28;20039;-39
2023/05/02 00:34:55;;;;;;;28.20;7.95;;;;;;;;;;5091303;28;20031;-39
2023/05/02 00:37:26;;;;;;;29.77;7.75;;;;;;;;;;5084174;28;20051;-38
2023/05/02 00:39:53;;;;;;;31.58;7.30;;;;;;;;;;5091702;28;20113;-37
2023/05/02 00:42:20;;;;;;;25.55;7.00;;;;;;;;;;5091257;28;20056;-38
2023/05/02 00:44:47;;;;;;;33.08;7.43;;;;;;;;;;5091284;28;20038;-37
2023/05/02 00:47:15;;;;;;;28.02;7.47;;;;;;;;;;5085449;28;20031;-38
2023/05/02 00:49:42;;;;;;;29.63;7.60;;;;;;;;;;5082172;28;20035;-38
2023/05/02 00:52:09;;;;;;;20.92;7.07;;;;;;;;;;5080741;28;20029;-36
2023/05/02 00:54:38;;;;;;;24.52;6.55;;;;;;;;;;5080579;28;20024;-36
2023/05/02 00:57:05;;;;;;;30.20;7.93;;;;;;;;;;5079046;28;20039;-39
2023/05/02 00:59:33;;;;;;;23.70;6.93;;;;;;;;;;5079853;28;20032;-36
2023/05/02 01:02:07;;;;;;;31.10;7.50;;;;;;;;;;5084755;28;20035;-36
2023/05/02 01:04:52;;;;;;;26.52;6.72;;;;;;;;;;5091573;28;20438;-36
2023/05/02 01:07:25;;;;;;;24.33;6.80;;;;;;;;;;5091637;28;20031;-36
2023/05/02 01:09:57;;;;;;;20.67;6.45;;;;;;;;;;5091397;28;20036;-36
2023/05/02 01:12:48;;;;;;;23.50;6.50;;;;;;;;;;5091404;28;20509;-37
2023/05/02 01:15:20;;;;;;;23.95;6.47;;;;;;;;;;5091563;28;20023;-36
2023/05/02 01:17:48;;;;;;;18.77;6.22;;;;;;;;;;5091422;28;20048;-37
2023/05/02 01:20:18;;;;;;;16.75;6.25;;;;;;;;;;5092983;28;20493;-37
2023/05/02 01:22:45;;;;;;;20.85;6.07;;;;;;;;;;5095501;28;20118;-36
2023/05/02 01:25:31;;;;;;;15.57;6.00;;;;;;;;;;5095619;28;20024;-37
2023/05/02 01:28:16;;;;;;;16.65;6.13;;;;;;;;;;5095580;28;20044;-37
2023/05/02 01:30:44;;;;;;;16.13;6.05;;;;;;;;;;5095384;28;20038;-37
2023/05/02 01:33:13;;;;;;;18.25;6.07;;;;;;;;;;5095282;28;20470;-36
2023/05/02 01:35:41;;;;;;;16.33;6.20;;;;;;;;;;5095379;28;20031;-37
2023/05/02 01:38:08;;;;;;;18.67;6.65;;;;;;;;;;5095369;28;20073;-36
2023/05/02 01:40:37;;;;;;;17.27;6.45;;;;;;;;;;5095007;28;20036;-37
2023/05/02 01:43:04;;;;;;;20.58;5.63;;;;;;;;;;5094974;28;20074;-36
2023/05/02 01:45:35;;;;;;;14.50;5.93;;;;;;;;;;5095295;28;20027;-36
2023/05/02 01:48:02;;;;;;;20.10;6.03;;;;;;;;;;5095288;28;20028;-36
2023/05/02 01:50:30;;;;;;;17.35;6.63;;;;;;;;;;5095094;28;20107;-37
2023/05/02 01:52:58;;;;;;;14.00;6.13;;;;;;;;;;5088837;28;20034;-36
2023/05/02 01:55:25;;;;;;;19.15;6.80;;;;;;;;;;5075099;28;20028;-36
2023/05/02 01:57:55;;;;;;;18.58;6.40;;;;;;;;;;5056414;28;20420;-37
2023/05/02 02:00:22;;;;;;;17.23;6.32;;;;;;;;;;5074366;28;20040;-36
2023/05/02 02:02:51;;;;;;;17.17;6.45;;;;;;;;;;5074514;28;20101;-37
2023/05/02 02:05:18;;;;;;;11.85;5.75;;;;;;;;;;5074546;28;20079;-37
2023/05/02 02:07:46;;;;;;;16.02;6.45;;;;;;;;;;5074289;28;20109;-36
2023/05/02 02:10:13;;;;;;;14.95;6.18;;;;;;;;;;5074413;28;20029;-35
2023/05/02 02:12:41;;;;;;;15.82;5.85;;;;;;;;;;5074390;28;20077;-36
2023/05/02 02:15:09;;;;;;;14.73;6.15;;;;;;;;;;5074273;28;20487;-36
2023/05/02 02:17:54;;;;;;;19.13;5.97;;;;;;;;;;5074374;28;20052;-36
2023/05/02 02:20:22;;;;;;;12.27;5.45;;;;;;;;;;5074044;28;20479;-37
2023/05/02 02:22:49;;;;;;;20.63;6.40;;;;;;;;;;5074177;28;20029;-37
2023/05/02 02:25:17;;;;;;;11.55;5.93;;;;;;;;;;5074271;28;20025;-37
2023/05/02 02:27:44;;;;;;;13.57;6.25;;;;;;;;;;5073964;28;20048;-36
2023/05/02 02:30:12;;;;;;;13.60;5.82;;;;;;;;;;5073930;28;20020;-37
2023/05/02 02:32:39;;;;;;;14.70;5.53;;;;;;;;;;5073758;28;20423;-37
2023/05/02 02:35:06;;;;;;;13.05;6.07;;;;;;;;;;5074010;28;20039;-37
2023/05/02 02:37:37;;;;;;;16.10;6.53;;;;;;;;;;5073817;28;20028;-37
2023/05/02 02:40:22;;;;;;;13.60;6.13;;;;;;;;;;5073734;28;20502;-36
2023/05/02 02:42:52;;;;;;;15.38;5.80;;;;;;;;;;5073759;28;20053;-37
2023/05/02 02:45:18;;;;;;;12.68;6.07;;;;;;;;;;5073689;28;20025;-38
2023/05/02 02:48:03;;;;;;;12.10;5.82;;;;;;;;;;5073726;28;20036;-36
2023/05/02 02:50:36;;;;;;;14.95;6.43;;;;;;;;;;5073679;28;20029;-36
2023/05/02 02:53:09;;;;;;;14.63;6.15;;;;;;;;;;5055784;28;20502;-36
2023/05/02 02:55:43;;;;;;;15.18;5.80;;;;;;;;;;5073502;28;20093;-36
2023/05/02 02:58:19;;;;;;;14.85;6.20;;;;;;;;;;5073401;28;20028;-36
2023/05/02 03:00:46;;;;;;;13.35;6.57;;;;;;;;;;5073460;28;20071;-37
2023/05/02 03:03:15;;;;;;;11.85;5.80;;;;;;;;;;5073475;28;20043;-37
2023/05/02 03:05:43;;;;;;;11.23;5.25;;;;;;;;;;5073404;28;20390;-36
2023/05/02 03:08:10;;;;;;;11.73;5.55;;;;;;;;;;5073204;28;20040;-37
2023/05/02 03:10:37;;;;;;;12.52;5.32;;;;;;;;;;5055295;28;20533;-37
2023/05/02 03:13:04;;;;;;;12.27;5.40;;;;;;;;;;5073220;28;20055;-37
2023/05/02 03:15:49;;;;;;;14.50;5.10;;;;;;;;;;5073294;28;20021;-36
2023/05/02 03:18:16;;;;;;;11.27;5.93;;;;;;;;;;5073136;28;20024;-37
2023/05/02 03:20:43;;;;;;;11.68;5.18;;;;;;;;;;5073142;28;20558;-37
2023/05/02 03:23:10;;;;;;;10.90;5.75;;;;;;;;;;5073252;28;20028;-37
2023/05/02 03:25:37;;;;;;;11.45;5.25;;;;;;;;;;5072964;28;20021;-36
2023/05/02 03:28:04;;;;;;;14.30;5.82;;;;;;;;;;5072954;28;20024;-39
2023/05/02 03:30:31;;;;;;;12.40;5.55;;;;;;;;;;5072858;28;20043;-37
2023/05/02 03:32:59;;;;;;;11.52;5.68;;;;;;;;;;5073003;28;20116;-36
2023/05/02 03:35:26;;;;;;;9.48;5.10;;;;;;;;;;5072566;28;20043;-36
2023/05/02 03:37:53;;;;;;;10.52;5.03;;;;;;;;;;5072802;28;20021;-37
2023/05/02 03:40:20;;;;;;;8.30;4.80;;;;;;;;;;5072577;28;20032;-37
2023/05/02 03:42:47;;;;;;;10.77;4.85;;;;;;;;;;5071500;28;20064;-37
2023/05/02 03:45:14;;;;;;;10.75;5.28;;;;;;;;;;5072642;28;20550;-37
2023/05/02 03:47:41;;;;;;;10.75;5.15;;;;;;;;;;5072540;28;20031;-36
2023/05/02 03:50:08;;;;;;;10.02;4.95;;;;;;;;;;5072275;28;20477;-37
2023/05/02 03:52:35;;;;;;;14.15;5.13;;;;;;;;;;5072447;28;20390;-37
2023/05/02 03:55:03;;;;;;;11.23;5.05;;;;;;;;;;5072561;28;20068;-37
2023/05/02 03:57:30;;;;;;;9.95;5.10;;;;;;;;;;5072512;28;20471;-36
2023/05/02 03:59:57;;;;;;;11.90;5.00;;;;;;;;;;5054552;28;20048;-37
2023/05/02 04:02:24;;;;;;;10.85;4.97;;;;;;;;;;5072244;28;20039;-36
2023/05/02 04:04:51;;;;;;;12.63;5.07;;;;;;;;;;5072299;28;20107;-36
2023/05/02 04:07:18;;;;;;;11.38;5.07;;;;;;;;;;5072309;28;20074;-37
2023/05/02 04:09:45;;;;;;;10.25;4.80;;;;;;;;;;5072190;28;20498;-37
2023/05/02 04:12:12;;;;;;;8.48;4.53;;;;;;;;;;5072092;28;20039;-37
2023/05/02 04:14:39;;;;;;;12.10;4.60;;;;;;;;;;5071978;28;20031;-36
2023/05/02 04:17:06;;;;;;;9.68;4.82;;;;;;;;;;5072424;28;20421;-37
2023/05/02 04:19:34;;;;;;;12.23;4.75;;;;;;;;;;5071962;28;20061;-37
2023/05/02 04:22:02;;;;;;;10.65;4.75;;;;;;;;;;5071923;28;20099;-37
2023/05/02 04:24:29;;;;;;;9.00;4.55;;;;;;;;;;5071897;28;20036;-36
2023/05/02 04:26:56;;;;;;;9.23;4.80;;;;;;;;;;5071721;28;20597;-36
2023/05/02 04:29:23;;;;;;;9.82;4.43;;;;;;;;;;5071757;28;20044;-37
2023/05/02 04:31:50;;;;;;;7.53;4.22;;;;;;;;;;5071943;28;20093;-37
2023/05/02 04:34:16;;;;;;;9.80;4.55;;;;;;;;;;5071881;28;20025;-37
2023/05/02 04:36:45;;;;;;;10.00;4.50;;;;;;;;;;5071681;28;20028;-36
2023/05/02 04:39:12;;;;;;;8.05;4.50;;;;;;;;;;5071632;28;20025;-37
2023/05/02 04:41:40;;;;;;;11.88;4.55;;;;;;;;;;5071570;28;20402;-37
2023/05/02 04:44:07;;;;;;;6.90;4.30;;;;;;;;;;5071175;28;20055;-37
2023/05/02 04:46:34;;;;;;;8.73;3.90;;;;;;;;;;5071753;28;20028;-37
2023/05/02 04:49:01;;;;;;;8.38;4.32;;;;;;;;;;5071614;28;20038;-36
2023/05/02 04:51:29;;;;;;;9.35;4.70;;;;;;;;;;5071547;28;20590;-36
2023/05/02 04:53:56;;;;;;;10.27;4.82;;;;;;;;;;5071417;28;20172;-36
2023/05/02 04:56:23;;;;;;;8.55;4.50;;;;;;;;;;5071475;28;20024;-36
2023/05/02 04:58:50;;;;;;;9.60;4.55;;;;;;;;;;5071604;28;20027;-37
2023/05/02 05:01:17;;;;;;;7.47;4.57;;;;;;;;;;5071500;28;20037;-37
2023/05/02 05:03:44;;;;;;;6.88;4.38;;;;;;;;;;5071527;28;20032;-36
2023/05/02 05:06:11;;;;;;;7.88;4.32;;;;;;;;;;5071373;28;20043;-36
2023/05/02 05:08:38;;;;;;;6.82;4.22;;;;;;;;;;5071461;28;20032;-37
2023/05/02 05:11:05;;;;;;;8.05;4.22;;;;;;;;;;5071472;28;20032;-37
2023/05/02 05:13:33;;;;;;;8.55;4.45;;;;;;;;;;5071594;28;20493;-37
2023/05/02 05:16:00;;;;;;;7.10;4.00;;;;;;;;;;5071266;28;20108;-37
2023/05/02 05:18:27;;;;;;;7.35;4.00;;;;;;;;;;5071063;28;20444;-36
2023/05/02 05:20:54;;;;;;;6.93;3.80;;;;;;;;;;5071333;28;20045;-36
2023/05/02 05:23:21;;;;;;;7.80;4.30;;;;;;;;;;5071393;28;20185;-37
2023/05/02 05:25:48;;;;;;;8.98;4.05;;;;;;;;;;5071202;28;20074;-36
2023/05/02 05:28:17;;;;;;;10.93;4.57;;;;;;;;;;5071217;28;20047;-37
2023/05/02 05:30:44;;;;;;;6.78;3.88;;;;;;;;;;5070926;28;20505;-36
2023/05/02 05:33:11;;;;;;;7.15;4.10;;;;;;;;;;5071284;28;20489;-36
2023/05/02 05:35:38;;;;;;;7.07;3.90;;;;;;;;;;5071445;28;20610;-36
2023/05/02 05:38:05;;;;;;;6.45;4.03;;;;;;;;;;5070928;28;20135;-36
2023/05/02 05:40:32;;;;;;;9.32;4.72;;;;;;;;;;5071143;28;20482;-37
2023/05/02 05:42:59;;;;;;;6.72;3.90;;;;;;;;;;5070882;28;20056;-36
2023/05/02 05:45:26;;;;;;;5.65;3.67;;;;;;;;;;5071132;28;20036;-36
2023/05/02 05:47:54;;;;;;;6.13;3.80;;;;;;;;;;5070956;28;20058;-36
2023/05/02 05:50:21;;;;;;;7.75;3.63;;;;;;;;;;5070986;28;20501;-36
2023/05/02 05:52:48;;;;;;;5.90;3.90;;;;;;;;;;5071080;28;20029;-38
2023/05/02 05:55:15;;;;;;;7.40;3.75;;;;;;;;;;5070991;28;20035;-37
2023/05/02 05:57:42;;;;;;;6.07;3.80;;;;;;;;;;5071006;28;20025;-38
2023/05/02 06:00:09;;;;;;;6.80;3.50;;;;;;;;;;5070675;28;20036;-38
2023/05/02 06:02:36;;;;;;;5.95;3.63;;;;;;;;;;5069063;28;20510;-37
2023/05/02 06:05:03;;;;;;;6.88;3.88;;;;;;;;;;5070940;28;20056;-36
2023/05/02 06:07:30;;;;;;;6.97;4.05;;;;;;;;;;5073983;28;20074;-37
2023/05/02 06:09:57;;;;;;;6.45;3.60;;;;;;;;;;5074223;28;20028;-36
2023/05/02 06:12:24;;;;;;;6.68;3.80;;;;;;;;;;5074536;28;20024;-36
2023/05/02 06:14:51;;;;;;;6.43;3.63;;;;;;;;;;5074488;28;20024;-36
2023/05/02 06:17:18;;;;;;;5.88;3.50;;;;;;;;;;5074451;28;20017;-36
2023/05/02 06:19:45;;;;;;;6.45;3.58;;;;;;;;;;5073939;28;20029;-36
2023/05/02 06:22:13;;;;;;;6.25;3.75;;;;;;;;;;5074297;28;20032;-36
2023/05/02 06:24:40;;;;;;;7.20;3.70;;;;;;;;;;5074335;28;20025;-36
2023/05/02 06:27:06;;;;;;;5.47;3.33;;;;;;;;;;5074063;28;20044;-36
2023/05/02 06:29:33;;;;;;;5.10;3.15;;;;;;;;;;5074058;28;20032;-36
2023/05/02 06:32:00;;;;;;;5.50;3.30;;;;;;;;;;5056417;28;20036;-37
2023/05/02 06:34:27;;;;;;;6.35;3.20;;;;;;;;;;5074154;28;20391;-37
2023/05/02 06:36:55;;;;;;;6.28;2.97;;;;;;;;;;5073788;28;20372;-36
2023/05/02 06:39:22;;;;;;;6.28;3.28;;;;;;;;;;5073833;28;20042;-36
2023/05/02 06:41:49;;;;;;;7.20;3.20;;;;;;;;;;5073867;28;20037;-36
2023/05/02 06:44:16;;;;;;;4.68;3.25;;;;;;;;;;5073888;28;20033;-37
2023/05/02 06:46:43;;;;;;;5.35;3.53;;;;;;;;;;5073915;28;20218;-36
2023/05/02 06:49:10;;;;;;;8.18;3.30;;;;;;;;;;5073724;28;20025;-36
2023/05/02 06:51:37;;;;;;;6.47;3.50;;;;;;;;;;5073570;28;20021;-36
2023/05/02 06:54:04;;;;;;;5.72;2.90;;;;;;;;;;5073789;28;20035;-36
2023/05/02 06:56:31;;;;;;;4.97;3.00;;;;;;;;;;5073599;28;20528;-37
2023/05/02 06:58:58;;;;;;;6.30;3.35;;;;;;;;;;5073507;28;20032;-36
2023/05/02 07:01:25;;;;;;;4.45;2.95;;;;;;;;;;5073561;28;20051;-36
2023/05/02 07:03:53;;;;;;;6.10;3.25;;;;;;;;;;5073512;28;20021;-36
2023/05/02 07:06:20;;;;;;;5.53;2.97;;;;;;;;;;5073623;28;20024;-36
2023/05/02 07:08:47;;;;;;;4.20;2.60;;;;;;;;;;5073392;28;20055;-36
2023/05/02 07:11:14;;;;;;;4.97;2.80;;;;;;;;;;5073310;28;20111;-36
2023/05/02 07:13:41;;;;;;;5.85;3.00;;;;;;;;;;5073415;28;20052;-36
2023/05/02 07:16:08;;;;;;;5.30;3.17;;;;;;;;;;5073302;28;20452;-36
2023/05/02 07:18:35;;;;;;;5.38;3.10;;;;;;;;;;5071916;28;20111;-36
2023/05/02 07:21:02;;;;;;;5.53;3.05;;;;;;;;;;5073216;28;20090;-37
2023/05/02 07:23:29;;;;;;;4.43;2.65;;;;;;;;;;5072986;28;20085;-36
2023/05/02 07:25:56;;;;;;;6.43;3.13;;;;;;;;;;5072927;28;20048;-36
2023/05/02 07:28:23;;;;;;;3.70;2.55;;;;;;;;;;5072989;28;20020;-36
2023/05/02 07:30:50;;;;;;;4.40;2.70;;;;;;;;;;5072915;28;20028;-37
2023/05/02 07:33:17;;;;;;;4.03;2.30;;;;;;;;;;5072804;28;20024;-37
2023/05/02 07:35:44;;;;;;;4.68;2.90;;;;;;;;;;5072804;28;20024;-37
2023/05/02 07:38:11;;;;;;;3.90;2.67;;;;;;;;;;5072821;28;20029;-36
2023/05/02 07:40:38;;;;;;;4.57;2.58;;;;;;;;;;5072818;28;20063;-36
2023/05/02 07:43:05;;;;;;;4.45;2.55;;;;;;;;;;5072558;28;20059;-36
2023/05/02 07:45:37;;;;;;;4.53;2.50;;;;;;;;;;5072381;28;20064;-36
2023/05/02 07:48:04;;;;;;;3.85;2.50;;;;;;;;;;5072506;28;20101;-36
2023/05/02 07:50:31;;;;;;;6.25;2.67;;;;;;;;;;5072548;28;20401;-36
2023/05/02 07:52:58;;;;;;;4.60;2.65;;;;;;;;;;5054646;28;20047;-36
2023/05/02 07:55:29;;;;;;;5.47;2.75;;;;;;;;;;5072472;28;20086;-36
2023/05/02 07:57:56;;;;;;;3.67;2.20;;;;;;;;;;5072245;28;20033;-36
2023/05/02 08:00:23;;;;;;;3.50;2.20;;;;;;;;;;5072442;28;20195;-36
2023/05/02 08:02:50;;;;;;;4.55;2.58;;;;;;;;;;5072384;28;20075;-36
2023/05/02 08:05:17;;;;;;;3.75;2.33;;;;;;;;;;5072225;28;20025;-36
2023/05/02 08:07:44;;;;;;;3.50;2.38;;;;;;;;;;5071909;28;20035;-36
2023/05/02 08:10:11;;;;;;;3.40;2.30;;;;;;;;;;5072145;28;20035;-36
2023/05/02 08:12:39;;;;;;;3.33;2.13;;;;;;;;;;5072206;28;20554;-36
2023/05/02 08:15:10;;;;;;;5.07;2.35;;;;;;;;;;5072143;28;20027;-36
2023/05/02 08:17:37;;;;;;;3.30;2.25;;;;;;;;;;5072012;28;20054;-36
2023/05/02 08:20:04;;;;;;;2.80;2.03;;;;;;;;;;5071805;28;20047;-36
2023/05/02 08:22:31;;;;;;;4.30;2.25;;;;;;;;;;5072080;28;20031;-37
2023/05/02 08:24:58;;;;;;;3.70;2.45;;;;;;;;;;5071889;28;20039;-37
2023/05/02 08:27:25;;;;;;;3.42;2.38;;;;;;;;;;5071903;28;20050;-36
2023/05/02 08:29:52;;;;;;;2.70;1.85;;;;;;;;;;5071375;28;20112;-36
2023/05/02 08:32:19;;;;;;;3.58;2.40;;;;;;;;;;5071788;28;20375;-37
2023/05/02 08:34:46;;;;;;;4.63;2.40;;;;;;;;;;5071756;28;20033;-36
2023/05/02 08:37:13;;;;;;;3.00;2.20;;;;;;;;;;5071801;28;20043;-37
2023/05/02 08:39:40;;;;;;;3.40;2.35;;;;;;;;;;5071641;28;20032;-36
2023/05/02 08:42:07;;;;;;;2.50;1.90;;;;;;;;;;5071520;28;20020;-36
2023/05/02 08:44:34;;;;;;;3.10;2.20;;;;;;;;;;5071514;28;20024;-36
2023/05/02 08:47:02;;;;;;;3.03;1.98;;;;;;;;;;5071671;28;20706;-36
2023/05/02 08:49:34;;;;;;;3.08;2.00;;;;;;;;;;5071569;28;20093;-36
2023/05/02 08:52:01;;;;;;;3.75;2.03;;;;;;;;;;5071492;28;20120;-36
2023/05/02 08:54:29;;;;;;;3.78;2.10;;;;;;;;;;5053421;28;20033;-36
2023/05/02 08:56:58;;;;;;;3.17;2.20;;;;;;;;;;5071477;28;20107;-36
2023/05/02 08:59:25;;;;;;;2.42;1.80;;;;;;;;;;5071349;28;20036;-35
2023/05/02 09:01:55;;;;;;;3.67;2.10;;;;;;;;;;5071419;28;20036;-36
2023/05/02 09:04:24;;;;;;;2.90;1.80;;;;;;;;;;5071494;28;20055;-36
2023/05/02 09:06:51;;;;;;;2.80;1.90;;;;;;;;;;5071342;28;20033;-37
2023/05/02 09:09:18;;;;;;;2.85;2.13;;;;;;;;;;5071419;28;20087;-36
2023/05/02 09:11:46;;;;;;;3.72;2.28;;;;;;;;;;5071401;28;20028;-36
2023/05/02 09:14:17;;;;;;;2.83;1.85;;;;;;;;;;5071260;28;20039;-37
2023/05/02 09:16:45;;;;;;;2.67;1.90;;;;;;;;;;5071221;28;20029;-36
2023/05/02 09:19:24;;;;;;;2.40;1.90;;;;;;;;;;5053174;28;20029;-36
2023/05/02 09:21:51;;;;;;;3.80;2.08;;;;;;;;;;5071151;28;20547;-36
2023/05/02 09:24:19;;;;;;;2.60;1.88;;;;;;;;;;5071371;28;20058;-37
2023/05/02 09:27:03;;;;;;;3.35;1.80;;;;;;;;;;5071298;28;20104;-37
2023/05/02 09:29:34;;;;;;;4.18;1.70;;;;;;;;;;5071083;28;20102;-36
2023/05/02 09:32:02;;;;;;;2.20;1.87;;;;;;;;;;5071165;28;20039;-36
2023/05/02 09:34:32;;;;;;;3.35;1.95;;;;;;;;;;5071241;28;20262;-36
2023/05/02 09:37:00;;;;;;;2.28;1.75;;;;;;;;;;5071213;28;20056;-36
2023/05/02 09:39:31;;;;;;;3.28;1.80;;;;;;;;;;5071056;28;20546;-37
2023/05/02 09:41:58;;;;;;;3.35;1.90;;;;;;;;;;5073264;28;20045;-37
2023/05/02 09:44:26;;;;;;;2.55;1.65;;;;;;;;;;5075110;28;20040;-36
2023/05/02 09:46:56;;;;;;;2.55;1.80;;;;;;;;;;5075012;28;20089;-36
2023/05/02 09:49:41;;;;;;;3.08;2.17;;;;;;;;;;5074906;28;20039;-37
2023/05/02 09:52:26;;;;;;;4.47;2.10;;;;;;;;;;5074890;28;20560;-37
2023/05/02 09:54:55;;;;;;;2.67;1.60;;;;;;;;;;5074620;28;20399;-36
2023/05/02 09:57:22;;;;;;;2.28;1.73;;;;;;;;;;5074489;28;20115;-36
2023/05/02 09:59:58;;;;;;;2.72;1.67;;;;;;;;;;5074480;28;20020;-37
2023/05/02 10:02:25;;;;;;;2.90;1.90;;;;;;;;;;5074669;28;20032;-37
2023/05/02 10:04:54;;;;;;;2.88;1.60;;;;;;;;;;5074569;28;20548;-36
2023/05/02 10:07:21;;;;;;;3.78;1.60;;;;;;;;;;5074423;28;20068;-37
2023/05/02 10:09:49;;;;;;;2.25;1.70;;;;;;;;;;5074183;28;20029;-36
2023/05/02 10:12:16;;;;;;;2.58;1.60;;;;;;;;;;5079072;28;20028;-37
2023/05/02 10:14:48;;;;;;;2.35;1.70;;;;;;;;;;5084311;28;20044;-38
2023/05/02 10:17:35;;;;;;;2.72;1.60;;;;;;;;;;5083058;28;20031;-36
2023/05/02 10:20:07;;;;;;;3.78;1.77;;;;;;;;;;5083892;28;20127;-38
2023/05/02 10:22:35;;;;;;;2.70;1.77;;;;;;;;;;5082983;28;20500;-38
2023/05/02 10:25:02;;;;;;;2.78;1.50;;;;;;;;;;5087768;28;20093;-38
2023/05/02 10:27:30;;;;;;;3.08;1.75;;;;;;;;;;5094506;28;20020;-38
2023/05/02 10:29:58;;;;;;;2.75;1.50;;;;;;;;;;5094350;28;20486;-37
2023/05/02 10:32:28;;;;;;;4.22;1.52;;;;;;;;;;5088951;28;20028;-38
2023/05/02 10:35:02;;;;;;;3.90;1.60;;;;;;;;;;5084003;28;20029;-38
2023/05/02 10:37:32;;;;;;;2.28;1.55;;;;;;;;;;5084307;28;20478;-38
2023/05/02 10:39:59;;;;;;;2.75;1.40;;;;;;;;;;5093669;28;20484;-36
2023/05/02 10:42:27;;;;;;;2.95;1.80;;;;;;;;;;5093384;28;20048;-36
2023/05/02 10:44:54;;;;;;;2.40;1.38;;;;;;;;;;5086355;28;20028;-37
2023/05/02 10:47:22;;;;;;;2.13;1.25;;;;;;;;;;5058156;28;20461;-36
2023/05/02 10:49:57;;;;;;;1.98;1.63;;;;;;;;;;5073706;28;20432;-36
2023/05/02 10:52:29;;;;;;;3.70;1.67;;;;;;;;;;5080656;28;20577;-38
2023/05/02 10:55:14;;;;;;;3.33;1.70;;;;;;;;;;5078483;28;20113;-38
2023/05/02 10:57:59;;;;;;;3.60;1.30;;;;;;;;;;5073204;28;20391;-38
2023/05/02 11:00:28;;;;;;;4.97;1.48;;;;;;;;;;5073399;28;20424;-38
2023/05/02 11:02:55;;;;;;;2.22;1.50;;;;;;;;;;5079043;28;20044;-38
2023/05/02 11:05:25;;;;;;;5.38;1.75;;;;;;;;;;5093356;28;20052;-37
2023/05/02 11:08:11;;;;;;;2.35;1.50;;;;;;;;;;5093512;28;20056;-36
2023/05/02 11:10:38;;;;;;;2.80;1.20;;;;;;;;;;5093546;28;20028;-37
2023/05/02 11:13:05;;;;;;;2.60;1.35;;;;;;;;;;5085937;28;20020;-36
2023/05/02 11:15:32;;;;;;;3.67;1.55;;;;;;;;;;5089737;28;20028;-40
2023/05/02 11:18:02;;;;;;;4.63;1.50;;;;;;;;;;5072600;28;20016;-38
2023/05/02 11:20:30;;;;;;;2.72;1.25;;;;;;;;;;5072549;28;20036;-38
2023/05/02 11:22:58;;;;;;;2.25;1.38;;;;;;;;;;5073277;28;20036;-38
2023/05/02 11:25:32;;;;;;;4.00;1.60;;;;;;;;;;5073030;28;20031;-38
2023/05/02 11:27:59;;;;;;;5.65;1.55;;;;;;;;;;5073126;28;20572;-38
2023/05/02 11:30:39;;;;;;;3.50;1.60;;;;;;;;;;5073082;28;20386;-38
2023/05/02 11:33:06;;;;;;;3.63;1.40;;;;;;;;;;5072933;28;20020;-38
2023/05/02 11:35:35;;;;;;;2.00;1.25;;;;;;;;;;5072985;28;20060;-38
2023/05/02 11:38:08;;;;;;;2.13;1.20;;;;;;;;;;5072860;28;20031;-38
2023/05/02 11:40:36;;;;;;;2.90;1.38;;;;;;;;;;5072755;28;20042;-38
2023/05/02 11:43:13;;;;;;;2.60;1.40;;;;;;;;;;5072665;28;20052;-38
2023/05/02 11:45:43;;;;;;;1.83;1.38;;;;;;;;;;5072818;28;20060;-38
2023/05/02 11:48:14;;;;;;;2.63;1.48;;;;;;;;;;5072569;28;20024;-38
2023/05/02 11:50:46;;;;;;;2.20;1.25;;;;;;;;;;5072681;28;20041;-39
2023/05/02 11:53:15;;;;;;;2.85;1.50;;;;;;;;;;5072614;28;20052;-38
2023/05/02 11:55:49;;;;;;;1.88;1.20;;;;;;;;;;5072496;28;20092;-38
2023/05/02 11:58:17;;;;;;;2.47;1.42;;;;;;;;;;5072413;28;20021;-37
2023/05/02 12:00:45;;;;;;;3.10;1.33;;;;;;;;;;5072404;28;20040;-38
2023/05/02 12:03:24;;;;;;;1.55;1.08;;;;;;;;;;5071865;28;20027;-38
2023/05/02 12:05:52;;;;;;;1.60;1.15;;;;;;;;;;5072420;28;20060;-38
2023/05/02 12:08:26;;;;;;;2.58;1.38;;;;;;;;;;5072083;28;20033;-38
2023/05/02 12:10:55;;;;;;;2.72;1.45;;;;;;;;;;5072340;28;20020;-38
2023/05/02 12:13:23;;;;;;;2.17;1.30;;;;;;;;;;5072276;28;20050;-38
2023/05/02 12:15:51;;;;;;;2.17;1.38;;;;;;;;;;5072163;28;20024;-41
2023/05/02 12:18:18;;;;;;;3.58;1.30;;;;;;;;;;5072118;28;20035;-38
2023/05/02 12:20:45;;;;;;;2.33;1.45;;;;;;;;;;5071897;28;20060;-38
2023/05/02 12:23:13;;;;;;;1.65;1.15;;;;;;;;;;5072150;28;20025;-39
2023/05/02 12:25:41;;;;;;;2.08;1.20;;;;;;;;;;5071916;28;20043;-38
2023/05/02 12:28:08;;;;;;;4.93;1.63;;;;;;;;;;5071953;28;20035;-38
2023/05/02 12:30:37;;;;;;;1.67;1.10;;;;;;;;;;5071958;28;20028;-38
2023/05/02 12:33:05;;;;;;;1.55;1.30;;;;;;;;;;5071708;28;20037;-38
2023/05/02 12:35:32;;;;;;;3.38;1.70;;;;;;;;;;5071828;28;20055;-38
2023/05/02 12:38:11;;;;;;;3.78;1.30;;;;;;;;;;5071827;28;20099;-38
2023/05/02 12:40:39;;;;;;;2.17;1.20;;;;;;;;;;5071780;28;20029;-38
2023/05/02 12:43:09;;;;;;;1.25;1.15;;;;;;;;;;5071614;28;20048;-38
2023/05/02 12:45:36;;;;;;;3.63;1.40;;;;;;;;;;5072108;28;20378;-38
2023/05/02 12:48:21;;;;;;;3.55;1.40;;;;;;;;;;5071538;28;20539;-38
2023/05/02 12:50:49;;;;;;;2.28;1.30;;;;;;;;;;5071716;28;20032;-38
2023/05/02 12:53:16;;;;;;;2.15;1.30;;;;;;;;;;5071641;28;20051;-38
2023/05/02 12:55:44;;;;;;;3.58;1.30;;;;;;;;;;5071700;28;20033;-38
2023/05/02 12:58:15;;;;;;;1.73;1.38;;;;;;;;;;5071538;28;20029;-38
2023/05/02 13:00:42;;;;;;;2.42;1.20;;;;;;;;;;5071619;28;20040;-37
2023/05/02 13:03:10;;;;;;;1.85;1.13;;;;;;;;;;5071541;28;20081;-37
2023/05/02 13:05:37;;;;;;;2.10;1.42;;;;;;;;;;5071522;28;20040;-38
2023/05/02 13:08:05;;;;;;;1.88;1.25;;;;;;;;;;5071445;28;20135;-38
2023/05/02 13:10:32;;;;;;;2.33;1.30;;;;;;;;;;5071415;28;20458;-38
2023/05/02 13:13:00;;;;;;;2.90;1.30;;;;;;;;;;5071456;28;20409;-38
2023/05/02 13:15:27;;;;;;;1.92;1.30;;;;;;;;;;5073084;28;20154;-37
2023/05/02 13:17:55;;;;;;;1.40;1.20;;;;;;;;;;5075495;28;20037;-37
2023/05/02 13:20:22;;;;;;;2.38;1.15;;;;;;;;;;5075482;28;20039;-38
2023/05/02 13:22:49;;;;;;;2.30;1.40;;;;;;;;;;5075460;28;20020;-38
2023/05/02 13:25:16;;;;;;;2.00;1.23;;;;;;;;;;5075491;28;20025;-38
2023/05/02 13:27:43;;;;;;;2.30;1.17;;;;;;;;;;5075362;28;20027;-38
2023/05/02 13:30:10;;;;;;;2.95;1.33;;;;;;;;;;5075414;28;20032;-38
2023/05/02 13:32:37;;;;;;;1.85;1.27;;;;;;;;;;5057360;28;20024;-38
2023/05/02 13:35:05;;;;;;;2.08;1.20;;;;;;;;;;5075200;28;20115;-37
2023/05/02 13:37:32;;;;;;;3.03;1.20;;;;;;;;;;5075234;28;20368;-38
2023/05/02 13:39:59;;;;;;;2.88;1.20;;;;;;;;;;5057087;28;20481;-38
2023/05/02 13:42:26;;;;;;;2.58;1.27;;;;;;;;;;5075033;28;20044;-37
2023/05/02 13:44:53;;;;;;;1.83;1.20;;;;;;;;;;5075165;28;20028;-37
2023/05/02 13:47:20;;;;;;;4.22;1.42;;;;;;;;;;5074934;28;20063;-38
2023/05/02 13:49:47;;;;;;;2.78;1.30;;;;;;;;;;5075050;28;20039;-37
2023/05/02 13:52:14;;;;;;;3.05;1.00;;;;;;;;;;5074977;28;20491;-38
2023/05/02 13:54:41;;;;;;;4.07;1.30;;;;;;;;;;5074868;28;20093;-37
2023/05/02 13:57:08;;;;;;;4.15;1.30;;;;;;;;;;5074709;28;20025;-38
2023/05/02 13:59:35;;;;;;;1.38;0.98;;;;;;;;;;5074729;28;20037;-38
2023/05/02 14:02:02;;;;;;;2.40;1.20;;;;;;;;;;5074674;28;20075;-37
2023/05/02 14:04:29;;;;;;;2.13;1.05;;;;;;;;;;5056706;28;20024;-38
2023/05/02 14:06:56;;;;;;;2.42;1.10;;;;;;;;;;5074679;28;20059;-38
2023/05/02 14:09:23;;;;;;;2.75;1.20;;;;;;;;;;5074493;28;20067;-38
2023/05/02 14:11:50;;;;;;;2.28;1.50;;;;;;;;;;5074673;28;20090;-37
2023/05/02 14:14:17;;;;;;;1.60;1.00;;;;;;;;;;5074540;28;20486;-38
2023/05/02 14:16:44;;;;;;;2.25;1.25;;;;;;;;;;5074408;28;20033;-38
2023/05/02 14:19:11;;;;;;;4.53;1.33;;;;;;;;;;5074391;28;20029;-38
2023/05/02 14:21:38;;;;;;;2.00;1.00;;;;;;;;;;5074328;28;20379;-38
2023/05/02 14:24:06;;;;;;;2.10;1.17;;;;;;;;;;5074468;28;20028;-38
2023/05/02 14:26:33;;;;;;;2.00;1.00;;;;;;;;;;5073668;28;20398;-38
2023/05/02 14:29:00;;;;;;;1.55;1.17;;;;;;;;;;5074055;28;20025;-38
2023/05/02 14:31:27;;;;;;;2.50;1.30;;;;;;;;;;5074241;28;20057;-38
2023/05/02 14:33:54;;;;;;;2.78;1.10;;;;;;;;;;5074247;28;20029;-38
2023/05/02 14:36:21;;;;;;;1.92;1.20;;;;;;;;;;5074251;28;20031;-38
2023/05/02 14:38:48;;;;;;;3.75;1.20;;;;;;;;;;5074067;28;20039;-38
2023/05/02 14:41:15;;;;;;;1.73;1.10;;;;;;;;;;5073973;28;20043;-37
2023/05/02 14:43:42;;;;;;;4.47;1.20;;;;;;;;;;5073903;28;20102;-37
2023/05/02 14:46:09;;;;;;;3.03;1.20;;;;;;;;;;5073988;28;20024;-40